Time;durP1;ratioP1;P1;durP2;ratioP2;P2;SDS_P1;SDS_P2;PMS_P1;PMS_P2;Temp;Humidity;BMP_temperature;BMP_pressure;BME280_temperature;BME280_humidity;BME280_pressure;Samples;Min_cycle;Max_cycle;Signal;HPM_P1;HPM_P2
2023/04/19 00:02:19;;;;;;;10.25;4.97;;;8.00;99.90;;;;;;4992559;28;20054;-84
2023/04/19 00:05:06;;;;;;;13.25;6.10;;;7.90;99.90;;;;;;5010731;28;20565;-85
2023/04/19 00:07:52;;;;;;;13.55;6.28;;;7.90;99.90;;;;;;4996189;28;20120;-81
2023/04/19 00:10:38;;;;;;;11.52;6.47;;;7.90;99.90;;;;;;4992897;28;20535;-81
2023/04/19 00:13:25;;;;;;;10.38;5.80;;;7.80;99.90;;;;;;4993487;28;20161;-83
2023/04/19 00:16:13;;;;;;;13.30;6.38;;;7.90;99.90;;;;;;4980633;28;20208;-87
2023/04/19 00:19:00;;;;;;;11.07;6.32;;;7.80;99.90;;;;;;4992745;28;20068;-83
2023/04/19 00:21:48;;;;;;;13.80;6.05;;;7.80;99.90;;;;;;4980473;28;20052;-85
2023/04/19 00:24:35;;;;;;;9.45;5.60;;;7.80;99.90;;;;;;4993814;28;20085;-84
2023/04/19 00:27:22;;;;;;;10.70;5.82;;;7.70;99.90;;;;;;4990448;28;20050;-87
2023/04/19 00:30:08;;;;;;;12.13;6.95;;;7.80;99.90;;;;;;4991521;28;20050;-82
2023/04/19 00:32:54;;;;;;;12.85;6.18;;;7.70;99.90;;;;;;4995223;28;20050;-82
2023/04/19 00:35:41;;;;;;;11.68;6.32;;;7.70;99.90;;;;;;4992735;28;20055;-79
2023/04/19 00:38:28;;;;;;;12.60;5.95;;;7.70;99.90;;;;;;4991603;28;20050;-80
2023/04/19 00:41:15;;;;;;;11.95;6.70;;;7.70;99.90;;;;;;4989996;28;20057;-83
2023/04/19 00:44:01;;;;;;;13.27;7.35;;;7.70;99.90;;;;;;4990344;28;20054;-87
2023/04/19 00:46:47;;;;;;;17.15;7.68;;;7.70;99.90;;;;;;4976221;28;20054;-85
2023/04/19 00:49:35;;;;;;;16.20;7.35;;;7.70;99.90;;;;;;4989675;28;20525;-89
2023/04/19 00:52:22;;;;;;;16.92;8.07;;;7.80;99.90;;;;;;4989240;28;20050;-85
2023/04/19 00:55:08;;;;;;;15.35;8.50;;;7.80;99.90;;;;;;4976098;28;20093;-86
2023/04/19 00:57:54;;;;;;;18.50;8.85;;;7.90;99.90;;;;;;4990516;28;20096;-85
2023/04/19 01:00:40;;;;;;;17.02;8.73;;;7.90;99.90;;;;;;4990895;28;20501;-80
2023/04/19 01:03:27;;;;;;;17.20;9.80;;;8.00;99.90;;;;;;4989331;28;20073;-89
2023/04/19 01:06:14;;;;;;;19.20;10.43;;;8.00;99.90;;;;;;4989051;28;20056;-83
2023/04/19 01:09:00;;;;;;;20.75;9.63;;;8.00;99.90;;;;;;4976271;28;20121;-81
2023/04/19 01:11:47;;;;;;;18.95;10.45;;;8.00;99.90;;;;;;4989936;28;20062;-86
2023/04/19 01:14:34;;;;;;;16.50;9.43;;;8.00;99.90;;;;;;4989146;28;20189;-85
2023/04/19 01:17:20;;;;;;;16.42;10.30;;;8.00;99.90;;;;;;4989184;28;20102;-87
2023/04/19 01:20:11;;;;;;;16.83;9.52;;;8.00;99.90;;;;;;4989289;28;20089;-81
2023/04/19 01:22:57;;;;;;;17.45;10.13;;;7.90;99.90;;;;;;4991118;28;20141;-78
2023/04/19 01:25:43;;;;;;;15.70;9.40;;;7.90;99.90;;;;;;4998868;28;20577;-82
2023/04/19 01:28:29;;;;;;;17.98;9.68;;;7.80;99.90;;;;;;4992906;28;20492;-80
2023/04/19 01:31:15;;;;;;;18.52;9.95;;;7.80;99.90;;;;;;4993013;28;20101;-81
2023/04/19 01:34:04;;;;;;;17.00;9.38;;;7.80;99.90;;;;;;5010236;28;20046;-82
2023/04/19 01:36:50;;;;;;;18.08;10.18;;;7.80;99.90;;;;;;5009848;28;20154;-88
2023/04/19 01:39:36;;;;;;;16.17;9.38;;;7.80;99.90;;;;;;5009929;28;20050;-84
2023/04/19 01:42:22;;;;;;;21.30;10.35;;;7.80;99.90;;;;;;5011453;28;20494;-81
2023/04/19 01:45:09;;;;;;;17.88;9.18;;;7.70;99.90;;;;;;4982808;28;20054;-84
2023/04/19 01:47:55;;;;;;;16.88;9.55;;;7.70;99.90;;;;;;4995917;28;20050;-85
2023/04/19 01:50:42;;;;;;;16.58;9.68;;;7.70;99.90;;;;;;5014552;28;20060;-81
2023/04/19 01:53:28;;;;;;;17.58;9.23;;;7.70;99.90;;;;;;5012928;28;20120;-80
2023/04/19 01:56:14;;;;;;;13.80;8.85;;;7.60;99.90;;;;;;4983065;28;20482;-80
2023/04/19 01:59:00;;;;;;;18.00;9.20;;;7.60;99.90;;;;;;4982436;28;20457;-79
2023/04/19 02:01:46;;;;;;;15.32;9.23;;;7.60;99.90;;;;;;4995755;28;20054;-82
2023/04/19 02:04:33;;;;;;;19.67;8.98;;;7.50;99.90;;;;;;4995776;28;20049;-83
2023/04/19 02:07:19;;;;;;;19.08;9.27;;;7.50;99.90;;;;;;4998745;28;20457;-83
2023/04/19 02:10:10;;;;;;;18.58;8.98;;;7.50;99.90;;;;;;4995146;28;20049;-84
2023/04/19 02:12:56;;;;;;;14.85;9.10;;;7.40;99.90;;;;;;4996073;28;20065;-83
2023/04/19 02:15:42;;;;;;;17.60;8.80;;;7.40;99.90;;;;;;4995827;28;20679;-81
2023/04/19 02:18:28;;;;;;;19.00;8.77;;;7.40;99.90;;;;;;4999135;28;20422;-84
2023/04/19 02:21:14;;;;;;;12.77;8.07;;;7.30;99.90;;;;;;4982761;28;20062;-80
2023/04/19 02:24:02;;;;;;;14.77;8.18;;;7.20;99.90;;;;;;4982733;28;20056;-83
2023/04/19 02:26:48;;;;;;;16.15;8.68;;;7.20;99.90;;;;;;4994283;28;20581;-84
2023/04/19 02:29:39;;;;;;;12.68;7.82;;;7.20;99.90;;;;;;4966651;28;20069;-84
2023/04/19 02:32:25;;;;;;;11.85;6.90;;;7.20;99.90;;;;;;4994424;28;20056;-82
2023/04/19 02:35:11;;;;;;;15.30;8.32;;;7.10;99.90;;;;;;4995168;28;20153;-86
2023/04/19 02:37:59;;;;;;;16.15;6.88;;;7.00;99.90;;;;;;4980501;28;20064;-84
2023/04/19 02:40:46;;;;;;;14.48;7.63;;;7.00;99.90;;;;;;4982277;28;20069;-83
2023/04/19 02:43:35;;;;;;;11.68;6.60;;;6.90;99.90;;;;;;4994580;28;20398;-81
2023/04/19 02:46:21;;;;;;;12.02;6.65;;;6.90;99.90;;;;;;4968562;28;20384;-80
2023/04/19 02:49:08;;;;;;;16.63;7.22;;;6.80;99.90;;;;;;4993679;28;20160;-85
2023/04/19 02:51:54;;;;;;;16.38;8.00;;;6.70;99.90;;;;;;4995345;28;20104;-86
2023/04/19 02:54:40;;;;;;;13.70;7.25;;;6.70;99.90;;;;;;4996166;28;20042;-79
2023/04/19 02:57:27;;;;;;;16.45;6.68;;;6.70;99.90;;;;;;4984928;28;20056;-80
2023/04/19 03:00:14;;;;;;;16.65;7.93;;;6.60;99.90;;;;;;4982577;28;20054;-83
2023/04/19 03:03:03;;;;;;;15.68;8.23;;;6.60;99.90;;;;;;4981770;28;20115;-88
2023/04/19 03:05:49;;;;;;;16.00;7.57;;;6.60;99.90;;;;;;4995440;28;20501;-83
2023/04/19 03:08:35;;;;;;;12.63;7.13;;;6.60;99.90;;;;;;4997897;28;20462;-87
2023/04/19 03:11:21;;;;;;;12.48;6.93;;;6.60;99.90;;;;;;4993088;28;20060;-88
2023/04/19 03:14:07;;;;;;;14.93;7.43;;;6.50;99.90;;;;;;4981760;28;20054;-87
2023/04/19 03:16:53;;;;;;;15.50;7.93;;;6.50;99.90;;;;;;5010160;28;20180;-87
2023/04/19 03:19:40;;;;;;;12.93;7.35;;;6.50;99.90;;;;;;4993000;28;20050;-88
2023/04/19 03:22:29;;;;;;;11.77;7.30;;;6.40;99.90;;;;;;5012057;28;20149;-87
2023/04/19 03:25:16;;;;;;;16.13;7.85;;;6.40;99.90;;;;;;4994643;28;20053;-89
2023/04/19 03:28:02;;;;;;;15.73;8.25;;;6.30;99.90;;;;;;4993851;28;20085;-88
2023/04/19 03:30:48;;;;;;;17.48;7.32;;;6.30;99.90;;;;;;4981332;28;20113;-89
2023/04/19 03:33:34;;;;;;;15.52;7.78;;;6.30;99.90;;;;;;4992950;28;20052;-89
2023/04/19 03:36:23;;;;;;;15.10;7.15;;;6.30;99.90;;;;;;5012126;28;20405;-89
2023/04/19 03:39:10;;;;;;;15.10;6.97;;;6.20;99.90;;;;;;4994085;28;20132;-86
2023/04/19 03:41:56;;;;;;;11.77;6.30;;;6.20;99.90;;;;;;4993712;28;20068;-85
2023/04/19 03:44:42;;;;;;;12.88;7.15;;;6.20;99.90;;;;;;4997530;28;20064;-82
2023/04/19 03:47:28;;;;;;;17.52;7.07;;;6.20;99.90;;;;;;5004153;28;20054;-85
2023/04/19 03:50:14;;;;;;;15.95;6.78;;;6.20;99.90;;;;;;4999381;28;20069;-87
2023/04/19 03:53:03;;;;;;;11.65;6.90;;;6.10;99.90;;;;;;4996681;28;20068;-89
2023/04/19 03:55:53;;;;;;;15.70;7.40;;;6.10;99.90;;;;;;4993841;28;20054;-85
2023/04/19 03:58:39;;;;;;;12.77;6.25;;;6.10;99.90;;;;;;4980569;28;20100;-83
2023/04/19 04:01:25;;;;;;;10.45;6.45;;;6.10;99.90;;;;;;4992822;28;20050;-83
2023/04/19 04:04:12;;;;;;;13.18;6.43;;;6.10;99.90;;;;;;5009262;28;20046;-82
2023/04/19 04:06:58;;;;;;;11.30;6.15;;;6.00;99.90;;;;;;5010267;28;20049;-86
2023/04/19 04:09:46;;;;;;;12.25;6.43;;;6.00;99.90;;;;;;4992215;28;20054;-87
2023/04/19 04:12:32;;;;;;;13.13;6.78;;;6.00;99.90;;;;;;4993946;28;20502;-89
2023/04/19 04:15:18;;;;;;;12.43;5.93;;;6.00;99.90;;;;;;4980506;28;20045;-88
2023/04/19 04:18:04;;;;;;;11.38;6.45;;;6.00;99.90;;;;;;4979000;28;20046;-87
2023/04/19 04:20:54;;;;;;;10.18;5.72;;;6.00;99.90;;;;;;5010874;28;20556;-89
2023/04/19 04:23:40;;;;;;;11.55;5.88;;;6.00;99.90;;;;;;4992913;28;20057;-89
2023/04/19 04:26:29;;;;;;;12.02;5.72;;;6.00;99.90;;;;;;4990882;28;20053;-87
2023/04/19 04:29:16;;;;;;;8.93;5.07;;;6.00;99.90;;;;;;4993029;28;20060;-86
2023/04/19 04:32:04;;;;;;;12.20;5.57;;;5.90;99.90;;;;;;5014061;28;20060;-86
2023/04/19 04:34:51;;;;;;;10.82;5.85;;;5.90;99.90;;;;;;5003181;28;20133;-88
2023/04/19 04:37:37;;;;;;;10.57;5.43;;;5.90;99.90;;;;;;4981113;28;20053;-89
2023/04/19 04:40:23;;;;;;;9.55;4.93;;;5.80;99.90;;;;;;4993004;28;20108;-87
2023/04/19 04:43:09;;;;;;;12.88;4.95;;;5.80;99.90;;;;;;4979177;28;20061;-86
2023/04/19 04:45:56;;;;;;;9.85;5.25;;;5.80;99.90;;;;;;4993012;28;20052;-87
2023/04/19 04:48:42;;;;;;;10.18;5.63;;;5.80;99.90;;;;;;5009245;28;20064;-87
2023/04/19 04:51:28;;;;;;;11.80;5.95;;;5.70;99.90;;;;;;4991583;28;20050;-88
2023/04/19 04:54:17;;;;;;;10.10;5.20;;;5.70;99.90;;;;;;4983651;28;20050;-81
2023/04/19 04:57:08;;;;;;;8.68;4.55;;;5.60;99.90;;;;;;4981492;28;20062;-86
2023/04/19 04:59:55;;;;;;;8.95;5.03;;;5.70;99.90;;;;;;4994068;28;20093;-82
2023/04/19 05:02:41;;;;;;;11.90;5.40;;;5.70;99.90;;;;;;4984561;28;20057;-85
2023/04/19 05:05:27;;;;;;;8.73;4.40;;;5.70;99.90;;;;;;4980547;28;20145;-87
2023/04/19 05:08:13;;;;;;;10.15;5.05;;;5.70;99.90;;;;;;4980772;28;20060;-87
2023/04/19 05:10:59;;;;;;;10.77;5.30;;;5.70;99.90;;;;;;4968141;28;20696;-85
2023/04/19 05:13:47;;;;;;;12.93;4.72;;;5.70;99.90;;;;;;4992328;28;20049;-85
2023/04/19 05:16:33;;;;;;;9.30;4.32;;;5.70;99.90;;;;;;4982629;28;20068;-87
2023/04/19 05:19:19;;;;;;;9.07;4.07;;;5.80;99.90;;;;;;4996179;28;20060;-85
2023/04/19 05:22:05;;;;;;;12.90;5.22;;;5.90;99.90;;;;;;4995527;28;20128;-78
2023/04/19 05:24:51;;;;;;;8.68;4.63;;;5.90;99.90;;;;;;4995882;28;20058;-87
2023/04/19 05:27:38;;;;;;;9.13;4.03;;;6.00;99.90;;;;;;5014829;28;20052;-81
2023/04/19 05:30:24;;;;;;;7.20;3.55;;;6.10;99.90;;;;;;4982820;28;20050;-80
2023/04/19 05:33:10;;;;;;;7.93;3.47;;;6.20;99.90;;;;;;5013565;28;20188;-80
2023/04/19 05:35:56;;;;;;;7.85;3.67;;;6.40;99.90;;;;;;5013034;28;20058;-86
2023/04/19 05:38:44;;;;;;;6.25;3.83;;;6.40;99.90;;;;;;5011429;28;20132;-80
2023/04/19 05:41:32;;;;;;;9.80;5.13;;;6.50;99.90;;;;;;4989161;28;20465;-79
2023/04/19 05:44:18;;;;;;;6.75;3.30;;;6.60;99.90;;;;;;4990727;28;20100;-82
2023/04/19 05:47:04;;;;;;;10.00;4.22;;;6.70;99.90;;;;;;5014455;28;20053;-87
2023/04/19 05:49:53;;;;;;;8.68;3.80;;;6.90;99.90;;;;;;4999729;28;20085;-81
2023/04/19 05:52:39;;;;;;;7.47;3.40;;;7.00;99.90;;;;;;5012899;28;20093;-87
2023/04/19 05:55:25;;;;;;;7.88;4.32;;;7.10;99.90;;;;;;5013592;28;20137;-85
2023/04/19 05:58:12;;;;;;;10.88;3.88;;;7.20;99.90;;;;;;5014249;28;20069;-87
2023/04/19 06:00:58;;;;;;;11.05;4.43;;;7.30;99.90;;;;;;5014304;28;20058;-89
2023/04/19 06:03:44;;;;;;;8.63;3.80;;;7.50;99.90;;;;;;4982446;28;20052;-89
2023/04/19 06:06:30;;;;;;;8.50;3.70;;;7.60;99.90;;;;;;5012968;28;20050;-88
2023/04/19 06:09:19;;;;;;;7.45;3.85;;;7.80;99.90;;;;;;4998496;28;20857;-85
2023/04/19 06:12:06;;;;;;;7.18;3.60;;;7.90;99.90;;;;;;4994938;28;20417;-87
2023/04/19 06:14:52;;;;;;;5.30;2.88;;;8.00;99.90;;;;;;4994747;28;20192;-82
2023/04/19 06:17:38;;;;;;;8.38;3.70;;;8.00;99.90;;;;;;4996177;28;20503;-90
2023/04/19 06:20:26;;;;;;;8.38;3.20;;;8.10;99.90;;;;;;4982024;28;20108;-86
2023/04/19 06:23:13;;;;;;;8.77;3.35;;;8.30;99.90;;;;;;5012951;28;20065;-78
2023/04/19 06:25:59;;;;;;;8.35;3.42;;;8.40;99.90;;;;;;4995941;28;20057;-84
2023/04/19 06:28:46;;;;;;;10.15;3.92;;;8.50;99.90;;;;;;4997465;28;20104;-90
2023/04/19 06:31:32;;;;;;;6.30;3.20;;;8.60;99.90;;;;;;5001445;28;20555;-80
2023/04/19 06:34:20;;;;;;;7.13;2.72;;;8.80;99.90;;;;;;4998578;28;20057;-84
2023/04/19 06:37:06;;;;;;;6.70;2.78;;;8.90;99.90;;;;;;4995300;28;20061;-86
2023/04/19 06:39:52;;;;;;;5.88;3.03;;;8.90;99.90;;;;;;4981628;28;20049;-88
2023/04/19 06:42:40;;;;;;;9.52;2.70;;;9.10;99.90;;;;;;4994540;28;20045;-86
2023/04/19 06:45:26;;;;;;;5.82;3.38;;;9.20;99.90;;;;;;4995744;28;20058;-86
2023/04/19 06:48:12;;;;;;;7.35;2.80;;;9.30;99.90;;;;;;4982853;28;20054;-89
2023/04/19 06:50:58;;;;;;;7.97;2.63;;;9.40;99.90;;;;;;4982320;28;20379;-85
2023/04/19 06:53:44;;;;;;;10.60;3.25;;;9.50;99.90;;;;;;4981813;28;20049;-89
2023/04/19 06:56:48;;;;;;;6.85;2.63;;;9.60;99.90;;;;;;4994038;28;20137;-84
2023/04/19 06:59:38;;;;;;;4.80;2.50;;;9.80;99.90;;;;;;4981474;28;20050;-80
2023/04/19 07:02:24;;;;;;;9.20;3.20;;;10.00;99.90;;;;;;5010137;28;20058;-80
2023/04/19 07:05:12;;;;;;;8.77;2.80;;;10.10;99.90;;;;;;4993719;28;20065;-80
2023/04/19 07:07:58;;;;;;;6.07;3.05;;;10.20;99.90;;;;;;5011491;28;20046;-81
2023/04/19 07:10:44;;;;;;;9.73;3.05;;;10.20;99.90;;;;;;4993431;28;20461;-80
2023/04/19 07:13:30;;;;;;;6.03;2.63;;;10.40;99.90;;;;;;4995242;28;20058;-84
2023/04/19 07:16:16;;;;;;;6.65;2.67;;;10.50;99.90;;;;;;5003426;28;20153;-81
2023/04/19 07:19:03;;;;;;;6.95;2.90;;;10.70;99.90;;;;;;4996977;28;20065;-84
2023/04/19 07:21:49;;;;;;;4.93;2.35;;;10.70;99.90;;;;;;4995251;28;20553;-86
2023/04/19 07:24:39;;;;;;;6.20;2.90;;;10.90;99.90;;;;;;5011774;28;20457;-81
2023/04/19 07:27:25;;;;;;;4.97;2.15;;;11.00;99.90;;;;;;4974049;28;20066;-87
2023/04/19 07:30:11;;;;;;;4.82;2.45;;;11.20;99.90;;;;;;4991965;28;20507;-82
2023/04/19 07:32:57;;;;;;;7.45;2.00;;;11.40;99.90;;;;;;4974862;28;20054;-87
2023/04/19 07:35:43;;;;;;;5.97;2.15;;;11.50;99.90;;;;;;4976625;28;20058;-85
2023/04/19 07:38:30;;;;;;;5.78;1.95;;;11.60;99.90;;;;;;4961558;28;20094;-86
2023/04/19 07:41:16;;;;;;;6.47;2.15;;;11.80;99.90;;;;;;4991227;28;20774;-87
2023/04/19 07:44:03;;;;;;;5.85;2.15;;;11.90;99.40;;;;;;4977922;28;20225;-89
2023/04/19 07:46:51;;;;;;;5.75;2.13;;;12.00;99.30;;;;;;4974131;28;20115;-88
2023/04/19 07:49:37;;;;;;;4.97;1.70;;;12.10;99.20;;;;;;4973923;28;20050;-86
2023/04/19 07:52:24;;;;;;;3.88;1.80;;;12.20;98.80;;;;;;4973816;28;20050;-82
2023/04/19 07:55:10;;;;;;;6.32;1.60;;;12.20;98.00;;;;;;4975197;28;20054;-88
2023/04/19 07:58:00;;;;;;;3.25;1.63;;;12.30;97.70;;;;;;4977981;28;20467;-86
2023/04/19 08:00:46;;;;;;;4.57;2.17;;;12.50;97.70;;;;;;4975382;28;20447;-82
2023/04/19 08:03:33;;;;;;;4.55;1.33;;;12.50;97.10;;;;;;4975106;28;20096;-87
2023/04/19 08:06:20;;;;;;;3.92;1.33;;;12.60;97.00;;;;;;4974061;28;20100;-89
2023/04/19 08:09:06;;;;;;;4.95;1.23;;;12.70;96.60;;;;;;4962034;28;20054;-80
2023/04/19 08:11:52;;;;;;;6.43;1.65;;;12.80;96.40;;;;;;4981779;28;20061;-82
2023/04/19 08:14:39;;;;;;;7.60;2.00;;;12.90;95.80;;;;;;4978785;28;20189;-85
2023/04/19 08:17:26;;;;;;;4.57;1.45;;;13.10;95.90;;;;;;4975517;28;20054;-85
2023/04/19 08:20:12;;;;;;;4.30;1.60;;;13.30;95.80;;;;;;4974665;28;20050;-89
2023/04/19 08:22:59;;;;;;;5.15;1.40;;;13.40;95.90;;;;;;4974961;28;20050;-83
2023/04/19 08:25:45;;;;;;;5.22;1.70;;;13.60;95.80;;;;;;4976207;28;20057;-83
2023/04/19 08:28:31;;;;;;;4.28;1.52;;;13.70;95.60;;;;;;4976677;28;20068;-89
2023/04/19 08:31:19;;;;;;;5.03;1.63;;;13.80;95.20;;;;;;4976218;28;20050;-88
2023/04/19 08:34:07;;;;;;;5.63;1.70;;;13.80;95.10;;;;;;4989884;28;20081;-81
2023/04/19 08:36:53;;;;;;;6.70;1.70;;;13.70;94.20;;;;;;4976736;28;20392;-84
2023/04/19 08:39:39;;;;;;;6.68;2.25;;;13.80;94.40;;;;;;4990115;28;20621;-88
2023/04/19 08:42:25;;;;;;;4.55;1.58;;;13.90;94.50;;;;;;4976518;28;20141;-86
2023/04/19 08:45:12;;;;;;;4.22;1.80;;;14.00;94.60;;;;;;4990449;28;20054;-81
2023/04/19 08:48:00;;;;;;;3.60;1.33;;;14.20;94.40;;;;;;4991383;28;20089;-83
2023/04/19 08:50:48;;;;;;;6.65;1.80;;;14.30;94.40;;;;;;4991566;28;20088;-82
2023/04/19 08:53:34;;;;;;;4.30;1.50;;;14.40;93.20;;;;;;4991282;28;20185;-87
2023/04/19 08:56:21;;;;;;;5.93;1.95;;;14.30;92.90;;;;;;4997815;28;20113;-80
2023/04/19 08:59:07;;;;;;;3.13;1.40;;;14.40;93.10;;;;;;5004572;28;20110;-86
2023/04/19 09:01:55;;;;;;;4.95;1.50;;;14.40;92.90;;;;;;4986313;28;20061;-90
2023/04/19 09:04:41;;;;;;;6.30;1.98;;;14.50;92.90;;;;;;4991312;28;20096;-86
2023/04/19 09:07:27;;;;;;;5.70;1.60;;;14.70;93.70;;;;;;4990706;28;20116;-89
2023/04/19 09:10:18;;;;;;;5.97;1.50;;;14.90;93.70;;;;;;4990949;28;20058;-90
2023/04/19 09:13:06;;;;;;;8.43;1.75;;;14.90;93.90;;;;;;4990118;28;20057;-89
2023/04/19 09:15:59;;;;;;;3.95;1.30;;;15.00;94.00;;;;;;4976449;28;20047;-90
2023/04/19 09:18:57;;;;;;;8.00;2.10;;;15.20;94.00;;;;;;4991662;28;20062;-91
2023/04/19 09:21:43;;;;;;;4.70;1.77;;;15.10;93.20;;;;;;4989024;28;20073;-89
2023/04/19 09:24:39;;;;;;;8.57;2.00;;;15.20;93.90;;;;;;4988988;28;20524;-89
2023/04/19 09:27:35;;;;;;;5.03;1.40;;;15.40;93.80;;;;;;5009113;28;20051;-89
2023/04/19 09:30:24;;;;;;;6.80;1.75;;;15.60;94.20;;;;;;4993616;28;20081;-89
2023/04/19 09:33:10;;;;;;;8.43;1.75;;;15.60;93.10;;;;;;5009600;28;20057;-89
2023/04/19 09:35:58;;;;;;;11.18;1.95;;;15.70;93.80;;;;;;4991749;28;20050;-86
2023/04/19 09:38:49;;;;;;;4.30;1.58;;;15.70;93.60;;;;;;4996585;28;20050;-86
2023/04/19 09:41:49;;;;;;;6.82;2.22;;;15.70;93.30;;;;;;5009800;28;20155;-83
2023/04/19 09:44:35;;;;;;;4.53;1.67;;;15.80;93.50;;;;;;4994197;28;20052;-89
2023/04/19 09:47:26;;;;;;;5.88;2.00;;;15.90;92.80;;;;;;5016149;28;20053;-84
2023/04/19 09:50:12;;;;;;;6.70;1.88;;;15.90;92.70;;;;;;5015590;28;20120;-82
2023/04/19 09:53:00;;;;;;;5.80;1.80;;;15.90;92.60;;;;;;5008927;28;20050;-83
2023/04/19 09:55:46;;;;;;;6.30;2.00;;;15.90;92.60;;;;;;4992262;28;20433;-84
2023/04/19 09:58:32;;;;;;;5.45;1.30;;;16.00;92.40;;;;;;4979394;28;20144;-87
2023/04/19 10:01:24;;;;;;;6.25;1.77;;;16.10;92.10;;;;;;4992378;28;20057;-83
2023/04/19 10:04:22;;;;;;;7.40;1.42;;;16.10;91.50;;;;;;5000419;28;20081;-87
2023/04/19 10:07:08;;;;;;;7.93;2.00;;;16.30;91.50;;;;;;4996122;28;20057;-90
2023/04/19 10:09:56;;;;;;;5.40;1.50;;;16.40;90.60;;;;;;5011859;28;20049;-88
2023/04/19 10:12:51;;;;;;;6.72;1.48;;;16.30;90.40;;;;;;4995941;28;20053;-89
2023/04/19 10:15:42;;;;;;;5.10;1.80;;;16.40;90.70;;;;;;4996303;28;20054;-88
2023/04/19 10:18:29;;;;;;;8.32;1.50;;;16.60;90.90;;;;;;4996539;28;20132;-90
2023/04/19 10:21:15;;;;;;;4.78;1.20;;;16.80;90.00;;;;;;5011154;28;20064;-89
2023/04/19 10:24:02;;;;;;;4.47;1.08;;;16.80;90.00;;;;;;5013627;28;20049;-86
2023/04/19 10:27:09;;;;;;;3.90;1.00;;;16.90;88.50;;;;;;4982290;28;20473;-88
2023/04/19 10:30:02;;;;;;;4.55;1.10;;;17.00;87.10;;;;;;4995098;28;20050;-83
2023/04/19 10:32:56;;;;;;;5.50;1.25;;;17.20;88.20;;;;;;4995158;28;20054;-85
2023/04/19 10:35:44;;;;;;;3.38;0.90;;;17.40;86.60;;;;;;4982827;28;20060;-84
2023/04/19 10:38:50;;;;;;;3.55;0.85;;;17.30;84.40;;;;;;4983031;28;20053;-89
2023/04/19 10:41:57;;;;;;;4.95;1.13;;;17.40;81.40;;;;;;5000881;28;20062;-85
2023/04/19 10:45:21;;;;;;;4.35;1.02;;;17.50;81.30;;;;;;5006183;28;20046;-83
2023/04/19 10:48:34;;;;;;;3.63;0.88;;;17.50;78.90;;;;;;5002949;28;20057;-87
2023/04/19 10:51:32;;;;;;;3.75;1.30;;;17.40;76.00;;;;;;4982342;28;20057;-90
2023/04/19 10:54:33;;;;;;;4.75;1.10;;;17.60;78.70;;;;;;4994340;28;20057;-87
2023/04/19 10:57:19;;;;;;;4.55;1.23;;;17.90;79.10;;;;;;4995061;28;20490;-88
2023/04/19 11:00:24;;;;;;;5.32;1.20;;;18.20;78.80;;;;;;4995618;28;20049;-87
2023/04/19 11:03:42;;;;;;;1.95;0.80;;;18.30;73.40;;;;;;5012870;28;20127;-88
2023/04/19 11:06:28;;;;;;;5.90;1.40;;;18.20;72.50;;;;;;4995218;28;20053;-87
2023/04/19 11:09:21;;;;;;;8.15;1.55;;;18.40;77.20;;;;;;4982116;28;20061;-87
2023/04/19 11:12:16;;;;;;;8.65;1.40;;;18.50;79.90;;;;;;4982348;28;20050;-84
2023/04/19 11:15:02;;;;;;;8.27;1.73;;;18.80;81.90;;;;;;5015366;28;20053;-82
2023/04/19 11:17:59;;;;;;;10.05;1.98;;;18.70;81.70;;;;;;4985067;28;20575;-88
2023/04/19 11:20:53;;;;;;;5.18;1.65;;;18.80;81.10;;;;;;4996809;28;20469;-84
2023/04/19 11:23:40;;;;;;;8.60;1.38;;;18.90;79.80;;;;;;4983715;28;20064;-86
2023/04/19 11:26:26;;;;;;;5.72;1.40;;;18.80;79.60;;;;;;5011461;28;20050;-86
2023/04/19 11:29:12;;;;;;;9.38;1.50;;;19.10;79.80;;;;;;4994964;28;20502;-88
2023/04/19 11:31:59;;;;;;;9.20;1.58;;;19.00;77.40;;;;;;4997922;28;20394;-87
2023/04/19 11:34:45;;;;;;;5.63;1.60;;;18.90;77.90;;;;;;4994941;28;20141;-88
2023/04/19 11:37:33;;;;;;;10.40;1.42;;;18.90;81.10;;;;;;4993137;28;20064;-88
2023/04/19 11:40:20;;;;;;;5.45;1.40;;;19.00;80.00;;;;;;4980961;28;20537;-89
2023/04/19 11:43:06;;;;;;;9.77;1.63;;;19.10;79.10;;;;;;4994151;28;20054;-86
2023/04/19 11:45:53;;;;;;;6.88;1.65;;;19.20;79.10;;;;;;4991931;28;20050;-81
2023/04/19 11:48:50;;;;;;;8.85;2.08;;;18.90;77.60;;;;;;4982656;28;20061;-84
2023/04/19 11:51:41;;;;;;;5.85;1.63;;;19.00;77.80;;;;;;4998501;28;20041;-87
2023/04/19 11:54:27;;;;;;;6.57;2.00;;;19.20;78.30;;;;;;5014791;28;20120;-83
2023/04/19 11:57:13;;;;;;;4.90;1.95;;;19.20;77.20;;;;;;5006937;28;20053;-83
2023/04/19 12:00:06;;;;;;;11.63;2.17;;;19.20;78.00;;;;;;5019014;28;20096;-85
2023/04/19 12:02:52;;;;;;;7.82;3.20;;;19.30;76.80;;;;;;4994577;28;20133;-82
2023/04/19 12:05:39;;;;;;;6.55;2.28;;;19.50;77.40;;;;;;4994478;28;20445;-87
2023/04/19 12:08:33;;;;;;;6.80;2.45;;;19.70;77.10;;;;;;4980975;28;20417;-84
2023/04/19 12:11:43;;;;;;;11.15;3.10;;;19.70;76.50;;;;;;4980735;28;20064;-89
2023/04/19 12:14:33;;;;;;;11.30;3.15;;;19.80;78.10;;;;;;4998282;28;20046;-89
2023/04/19 12:17:19;;;;;;;7.32;2.22;;;19.80;76.80;;;;;;4981700;28;20496;-87
2023/04/19 12:20:07;;;;;;;5.78;2.05;;;19.90;75.80;;;;;;4982100;28;20054;-88
2023/04/19 12:22:54;;;;;;;7.60;2.70;;;20.20;76.50;;;;;;4993650;28;20053;-84
2023/04/19 12:25:41;;;;;;;6.60;2.88;;;20.60;75.80;;;;;;4992672;28;20118;-85
2023/04/19 12:28:27;;;;;;;10.75;3.00;;;20.50;74.40;;;;;;4979847;28;20053;-84
2023/04/19 12:31:13;;;;;;;6.88;3.00;;;20.50;72.70;;;;;;4996711;28;20064;-85
2023/04/19 12:33:59;;;;;;;6.43;2.80;;;20.20;71.50;;;;;;4994161;28;20065;-86
2023/04/19 12:36:45;;;;;;;7.97;2.78;;;20.70;72.80;;;;;;5010605;28;20060;-87
2023/04/19 12:39:31;;;;;;;7.03;3.20;;;20.60;70.40;;;;;;4993468;28;20057;-87
2023/04/19 12:42:17;;;;;;;7.38;2.63;;;21.10;69.80;;;;;;4981115;28;20132;-86
2023/04/19 12:45:04;;;;;;;9.98;2.95;;;21.40;69.80;;;;;;4997050;28;20149;-87
2023/04/19 12:47:50;;;;;;;9.85;3.30;;;21.40;68.00;;;;;;4993038;28;20084;-84
2023/04/19 12:54:37;;;;;;;6.07;2.83;;;22.10;66.00;;;;;;5012021;28;20083;-86
2023/04/19 12:57:23;;;;;;;8.50;3.25;;;22.10;64.90;;;;;;4994702;28;20056;-87
2023/04/19 13:00:10;;;;;;;5.60;3.28;;;22.30;65.60;;;;;;5010770;28;20067;-90
2023/04/19 13:02:56;;;;;;;9.65;3.83;;;22.50;64.00;;;;;;4979958;28;20047;-86
2023/04/19 13:05:42;;;;;;;8.82;2.85;;;22.60;62.60;;;;;;5010044;28;20045;-88
2023/04/19 13:08:28;;;;;;;10.65;3.05;;;22.50;62.30;;;;;;4992286;28;20056;-88
2023/04/19 13:11:16;;;;;;;10.18;3.35;;;22.40;61.80;;;;;;4992670;28;20096;-86
2023/04/19 13:14:02;;;;;;;8.38;3.00;;;23.40;61.50;;;;;;4997672;28;20093;-90
2023/04/19 13:16:49;;;;;;;7.82;2.88;;;23.50;60.00;;;;;;5011334;28;20053;-89
2023/04/19 13:19:35;;;;;;;8.18;3.28;;;23.00;58.80;;;;;;4994708;28;20096;-90
2023/04/19 13:22:21;;;;;;;19.35;3.72;;;23.20;59.30;;;;;;4994507;28;20054;-87
2023/04/19 13:25:07;;;;;;;10.43;3.60;;;23.90;59.10;;;;;;5010957;28;20057;-88
2023/04/19 13:27:53;;;;;;;9.55;3.38;;;23.80;58.40;;;;;;4993840;28;20046;-85
2023/04/19 13:30:39;;;;;;;7.68;3.63;;;23.50;57.30;;;;;;4997168;28;20045;-90
2023/04/19 13:33:26;;;;;;;6.95;3.10;;;23.70;56.80;;;;;;4979770;28;20058;-89
2023/04/19 13:36:12;;;;;;;11.48;3.97;;;24.00;56.00;;;;;;4967844;28;20418;-85
2023/04/19 13:38:58;;;;;;;15.45;4.55;;;24.10;54.70;;;;;;5013412;28;20498;-92
2023/04/19 13:41:44;;;;;;;12.10;4.25;;;24.30;54.30;;;;;;4997835;28;20077;-86
2023/04/19 13:44:31;;;;;;;12.20;3.63;;;24.10;53.80;;;;;;4982923;28;20401;-87
2023/04/19 13:47:17;;;;;;;7.80;3.25;;;24.30;53.50;;;;;;5014654;28;20058;-85
2023/04/19 13:50:03;;;;;;;10.93;3.33;;;24.50;52.80;;;;;;5013968;28;20141;-80
2023/04/19 13:52:49;;;;;;;7.55;3.60;;;24.40;52.00;;;;;;5015010;28;20058;-90
2023/04/19 13:55:35;;;;;;;10.30;3.53;;;25.40;52.40;;;;;;5003833;28;20054;-83
2023/04/19 13:58:23;;;;;;;10.32;3.30;;;24.70;50.70;;;;;;5009167;28;20045;-86
2023/04/19 14:01:09;;;;;;;13.38;4.28;;;25.20;50.00;;;;;;5003454;28;20058;-92
2023/04/19 14:03:55;;;;;;;10.10;3.20;;;25.40;50.40;;;;;;4996744;28;20050;-91
2023/04/19 14:06:42;;;;;;;10.57;3.80;;;25.60;50.60;;;;;;4996670;28;20054;-92
2023/04/19 14:09:28;;;;;;;8.90;3.38;;;25.80;49.40;;;;;;4984550;28;20487;-88
2023/04/19 14:12:14;;;;;;;9.05;3.13;;;26.10;49.00;;;;;;4985258;28;20409;-88
2023/04/19 14:15:00;;;;;;;13.55;3.88;;;26.10;48.80;;;;;;5000830;28;20201;-88
2023/04/19 14:17:46;;;;;;;11.45;3.38;;;25.90;48.50;;;;;;5014110;28;20061;-93
2023/04/19 14:20:32;;;;;;;7.15;2.80;;;25.90;48.40;;;;;;4998027;28;20050;-81
2023/04/19 14:23:19;;;;;;;8.20;3.33;;;26.10;47.90;;;;;;4987517;28;20056;-89
2023/04/19 14:26:05;;;;;;;9.68;2.80;;;26.30;47.70;;;;;;4996347;28;20058;-92
2023/04/19 14:28:51;;;;;;;7.78;3.20;;;26.50;46.80;;;;;;4997107;28;20092;-84
2023/04/19 14:31:37;;;;;;;8.85;2.90;;;26.20;46.00;;;;;;5013716;28;20105;-90
2023/04/19 14:34:23;;;;;;;14.80;2.85;;;26.20;45.60;;;;;;4998842;28;20173;-89
2023/04/19 14:37:09;;;;;;;9.30;2.42;;;26.10;45.70;;;;;;4998967;28;20453;-85
2023/04/19 14:39:55;;;;;;;7.18;2.20;;;26.30;45.90;;;;;;4998437;28;20064;-90